Time;durP1;ratioP1;P1;durP2;ratioP2;P2;SDS_P1;SDS_P2;PMS_P1;PMS_P2;Temp;Humidity;BMP_temperature;BMP_pressure;BME280_temperature;BME280_humidity;BME280_pressure;Samples;Min_cycle;Max_cycle;Signal;HPM_P1;HPM_P2
2022/11/29 00:01:28;;;;;;;15.70;11.70;;;11.90;99.90;;;;;;5054855;28;20810;-69
2022/11/29 00:03:54;;;;;;;12.90;11.50;;;11.90;99.90;;;;;;5055551;28;20419;-70
2022/11/29 00:06:22;;;;;;;12.90;11.20;;;12.00;99.90;;;;;;5053738;28;20420;-70
2022/11/29 00:08:48;;;;;;;13.17;11.50;;;11.90;99.90;;;;;;5054060;28;20185;-70
2022/11/29 00:14:05;;;;;;;10.90;9.80;;;11.90;99.90;;;;;;5055371;28;20813;-69
2022/11/29 00:16:31;;;;;;;11.77;10.03;;;11.90;99.90;;;;;;5051352;28;20439;-69
2022/11/29 00:18:57;;;;;;;11.73;10.50;;;11.90;99.90;;;;;;5054964;28;20422;-69
2022/11/29 00:21:23;;;;;;;10.50;9.47;;;11.90;99.90;;;;;;5054293;28;20814;-69
2022/11/29 00:23:48;;;;;;;10.90;9.77;;;11.90;99.90;;;;;;5054509;28;20206;-69
2022/11/29 00:26:14;;;;;;;14.00;10.50;;;11.90;99.90;;;;;;5053659;28;20186;-74
2022/11/29 00:28:40;;;;;;;11.60;10.37;;;11.90;99.90;;;;;;5054543;28;20170;-70
2022/11/29 00:31:32;;;;;;;10.73;9.60;;;11.90;99.90;;;;;;5054556;28;20200;-69
2022/11/29 00:34:00;;;;;;;11.90;10.10;;;11.90;99.90;;;;;;5053600;28;20212;-69
2022/11/29 00:36:26;;;;;;;12.13;10.77;;;11.80;99.90;;;;;;5051713;28;20431;-70
2022/11/29 00:38:52;;;;;;;10.70;9.63;;;11.90;99.90;;;;;;5054763;28;20938;-70
2022/11/29 00:41:18;;;;;;;12.93;11.47;;;11.90;99.90;;;;;;5053874;28;20463;-69
2022/11/29 00:43:43;;;;;;;11.53;10.33;;;11.90;99.90;;;;;;5055009;28;20414;-70
2022/11/29 00:46:09;;;;;;;12.23;10.70;;;11.90;99.90;;;;;;5053792;28;20534;-69
2022/11/29 00:48:35;;;;;;;12.27;10.70;;;11.90;99.90;;;;;;5053871;28;20850;-69
2022/11/29 00:51:02;;;;;;;12.27;9.47;;;11.90;99.90;;;;;;5054585;28;20185;-69
2022/11/29 00:53:28;;;;;;;11.70;10.13;;;11.90;99.90;;;;;;5053759;28;20469;-69
2022/11/29 00:55:54;;;;;;;11.77;10.57;;;11.90;99.90;;;;;;5053660;28;20431;-69
2022/11/29 00:58:20;;;;;;;11.20;10.10;;;11.90;99.90;;;;;;5052883;28;20171;-69
2022/11/29 01:00:46;;;;;;;11.93;10.73;;;11.90;99.90;;;;;;5052909;28;20467;-70
2022/11/29 01:03:13;;;;;;;11.23;9.80;;;11.90;99.90;;;;;;5054422;28;20431;-69
2022/11/29 01:05:40;;;;;;;10.57;9.47;;;11.90;99.90;;;;;;5052564;28;20431;-70
2022/11/29 01:08:05;;;;;;;10.63;9.10;;;11.90;99.90;;;;;;5052990;28;20485;-70
2022/11/29 01:10:32;;;;;;;10.00;9.00;;;11.90;99.90;;;;;;5052990;28;20414;-70
2022/11/29 01:12:58;;;;;;;10.20;9.10;;;11.90;99.90;;;;;;5052386;28;20221;-69
2022/11/29 01:15:23;;;;;;;10.13;9.03;;;11.90;99.90;;;;;;5052681;28;20996;-70
2022/11/29 01:17:49;;;;;;;9.60;8.70;;;11.90;99.90;;;;;;5054051;28;20180;-69
2022/11/29 01:20:15;;;;;;;10.20;9.13;;;12.00;99.90;;;;;;5053740;28;20299;-74
2022/11/29 01:22:41;;;;;;;10.80;9.70;;;12.00;99.90;;;;;;5052628;28;20671;-70
2022/11/29 01:25:08;;;;;;;10.67;9.63;;;12.00;99.90;;;;;;5053193;28;20938;-70
2022/11/29 01:27:34;;;;;;;11.10;10.07;;;12.00;99.90;;;;;;5051855;28;20570;-70
2022/11/29 01:30:00;;;;;;;10.07;8.97;;;12.00;99.90;;;;;;5052553;28;20416;-70
2022/11/29 01:32:25;;;;;;;10.80;9.80;;;12.00;99.90;;;;;;5053067;28;20501;-70
2022/11/29 01:34:51;;;;;;;10.60;9.60;;;12.00;99.90;;;;;;5052874;28;20192;-69
2022/11/29 01:37:17;;;;;;;10.63;9.63;;;11.90;99.90;;;;;;5053440;28;20175;-73
2022/11/29 01:39:43;;;;;;;10.03;9.23;;;12.00;99.90;;;;;;5035380;28;20248;-70
2022/11/29 01:42:12;;;;;;;11.00;9.90;;;11.90;99.90;;;;;;5053539;28;20463;-70
2022/11/29 01:44:38;;;;;;;11.00;9.90;;;11.90;99.90;;;;;;5051923;28;20181;-70
2022/11/29 01:47:03;;;;;;;11.23;9.93;;;12.00;99.90;;;;;;5053518;28;20438;-70
2022/11/29 01:49:39;;;;;;;11.87;9.50;;;12.00;99.90;;;;;;5052636;28;20178;-70
2022/11/29 01:52:15;;;;;;;10.37;9.37;;;11.90;99.90;;;;;;5051965;28;20439;-70
2022/11/29 01:54:44;;;;;;;10.80;9.67;;;12.00;99.90;;;;;;5051641;28;20804;-70
2022/11/29 01:57:12;;;;;;;11.80;10.33;;;12.00;99.90;;;;;;5052602;28;20930;-70
2022/11/29 01:59:42;;;;;;;10.50;9.20;;;12.00;99.90;;;;;;5052061;28;20505;-70
2022/11/29 02:02:16;;;;;;;11.23;10.13;;;12.00;99.90;;;;;;5052413;28;20822;-70
2022/11/29 02:04:44;;;;;;;10.33;9.23;;;12.00;99.90;;;;;;5050900;28;20534;-70
2022/11/29 02:07:10;;;;;;;12.90;10.17;;;12.00;99.90;;;;;;5052318;28;20432;-70
2022/11/29 02:09:36;;;;;;;10.97;9.70;;;11.90;99.90;;;;;;5051392;28;20436;-69
2022/11/29 02:12:11;;;;;;;11.23;9.67;;;12.00;99.90;;;;;;5052758;28;20830;-69
2022/11/29 02:15:07;;;;;;;11.00;9.90;;;12.00;99.90;;;;;;5049942;28;20930;-69
2022/11/29 02:17:57;;;;;;;11.03;9.83;;;12.00;99.90;;;;;;5051131;28;20447;-70
2022/11/29 02:20:41;;;;;;;10.00;9.00;;;12.00;99.90;;;;;;5052021;28;20408;-71
2022/11/29 02:23:44;;;;;;;11.70;10.07;;;12.00;99.90;;;;;;5050029;28;20797;-70
2022/11/29 02:26:52;;;;;;;10.90;9.70;;;12.00;99.90;;;;;;5050763;28;20442;-70
2022/11/29 02:29:43;;;;;;;12.57;10.03;;;11.90;99.90;;;;;;5051525;28;20776;-70
2022/11/29 02:32:14;;;;;;;9.90;8.90;;;11.90;99.90;;;;;;5052750;28;20405;-70
2022/11/29 02:34:40;;;;;;;10.90;9.80;;;11.90;99.90;;;;;;5050688;28;21143;-69
2022/11/29 02:37:15;;;;;;;9.30;8.40;;;11.90;99.90;;;;;;5051287;28;20428;-70
2022/11/29 02:39:59;;;;;;;10.87;9.13;;;11.90;99.90;;;;;;5051718;28;20177;-70
2022/11/29 02:42:47;;;;;;;9.37;8.47;;;11.90;99.90;;;;;;5048591;28;20471;-69
2022/11/29 02:45:20;;;;;;;9.23;8.10;;;11.90;99.90;;;;;;5052493;28;20455;-70
2022/11/29 02:48:36;;;;;;;10.43;8.77;;;12.00;99.90;;;;;;5048152;28;20439;-70
2022/11/29 02:51:21;;;;;;;13.03;8.67;;;11.90;99.90;;;;;;5042024;28;20448;-69
2022/11/29 02:53:55;;;;;;;9.73;8.73;;;11.90;99.90;;;;;;5051892;28;20434;-70
2022/11/29 02:56:44;;;;;;;9.03;8.13;;;11.90;99.90;;;;;;5052146;28;20411;-73
2022/11/29 02:59:41;;;;;;;9.10;8.20;;;11.90;99.90;;;;;;5052078;28;20467;-70
2022/11/29 03:02:26;;;;;;;8.87;7.97;;;11.90;99.90;;;;;;5051335;28;20567;-70
2022/11/29 03:05:19;;;;;;;9.07;8.13;;;12.00;99.90;;;;;;5052369;28;20444;-70
2022/11/29 03:07:59;;;;;;;8.53;7.63;;;12.00;99.90;;;;;;5051436;28;20412;-70
2022/11/29 03:10:33;;;;;;;9.30;8.27;;;12.00;99.90;;;;;;5050642;28;20443;-74
2022/11/29 03:13:04;;;;;;;9.70;8.70;;;11.90;99.90;;;;;;5052327;28;20415;-70
2022/11/29 03:15:50;;;;;;;9.40;8.50;;;12.00;99.90;;;;;;5051592;28;20484;-70
2022/11/29 03:18:43;;;;;;;8.73;7.93;;;11.90;99.90;;;;;;5051944;28;20392;-69
2022/11/29 03:21:21;;;;;;;9.13;8.30;;;12.00;99.90;;;;;;5051134;28;20470;-70
2022/11/29 03:23:55;;;;;;;8.57;7.73;;;11.90;99.90;;;;;;5050604;28;20443;-70
2022/11/29 03:26:31;;;;;;;9.20;8.30;;;12.00;99.90;;;;;;5050095;28;20436;-70
2022/11/29 03:29:08;;;;;;;9.60;8.70;;;12.00;99.90;;;;;;5051972;28;20407;-69
2022/11/29 03:31:41;;;;;;;9.33;8.43;;;12.00;99.90;;;;;;5049192;28;20472;-69
2022/11/29 03:34:42;;;;;;;9.40;8.60;;;12.00;99.90;;;;;;5054394;28;20388;-69
2022/11/29 03:37:18;;;;;;;10.33;9.23;;;12.00;99.90;;;;;;5055020;28;20441;-70
2022/11/29 03:39:46;;;;;;;10.77;9.73;;;12.00;99.90;;;;;;5055102;28;20475;-70
2022/11/29 03:42:34;;;;;;;12.70;9.87;;;12.00;99.90;;;;;;5054243;28;20808;-69
2022/11/29 03:45:09;;;;;;;11.43;10.23;;;12.00;99.90;;;;;;5055854;28;20450;-70
2022/11/29 03:48:02;;;;;;;12.03;10.73;;;12.00;99.90;;;;;;5055250;28;20461;-70
2022/11/29 03:50:45;;;;;;;12.90;10.60;;;12.00;99.90;;;;;;5054436;28;20404;-73
2022/11/29 03:53:30;;;;;;;12.80;11.40;;;12.00;99.90;;;;;;5055693;28;20401;-69
2022/11/29 03:55:59;;;;;;;11.93;10.73;;;11.90;99.90;;;;;;5054492;28;20516;-69
2022/11/29 03:58:28;;;;;;;13.67;10.70;;;11.90;99.90;;;;;;5050197;28;20518;-74
2022/11/29 04:01:16;;;;;;;13.77;11.60;;;11.90;99.90;;;;;;5052631;28;20572;-70
2022/11/29 04:04:00;;;;;;;11.90;10.40;;;11.90;99.90;;;;;;5053969;28;20439;-70
2022/11/29 04:06:44;;;;;;;11.20;10.07;;;11.90;99.90;;;;;;5054606;28;20420;-73
2022/11/29 04:09:22;;;;;;;13.83;10.83;;;11.90;99.90;;;;;;5053446;28;20440;-70
2022/11/29 04:12:16;;;;;;;14.80;11.47;;;11.90;99.90;;;;;;5054535;28;20584;-69
2022/11/29 04:15:06;;;;;;;15.80;11.33;;;11.90;99.90;;;;;;5054190;28;20438;-69
2022/11/29 04:18:09;;;;;;;16.10;12.77;;;11.90;99.90;;;;;;5054438;28;20433;-70
2022/11/29 04:20:44;;;;;;;15.20;12.67;;;11.90;99.90;;;;;;5052033;28;20489;-70
2022/11/29 04:23:12;;;;;;;12.97;11.43;;;11.90;99.90;;;;;;5053976;28;20921;-70
2022/11/29 04:25:54;;;;;;;13.83;11.67;;;11.90;99.90;;;;;;5054227;28;20443;-70
2022/11/29 04:28:32;;;;;;;13.13;11.27;;;11.90;99.90;;;;;;5035567;28;20399;-69
2022/11/29 04:30:57;;;;;;;13.87;11.27;;;11.80;99.90;;;;;;5050748;28;20439;-70
2022/11/29 04:33:43;;;;;;;14.20;11.53;;;11.80;99.90;;;;;;5054899;28;20426;-69
2022/11/29 04:36:25;;;;;;;16.43;11.30;;;11.80;99.90;;;;;;5043241;28;20194;-69
2022/11/29 04:39:17;;;;;;;14.67;11.07;;;11.80;99.90;;;;;;5052423;28;20757;-70
2022/11/29 04:42:05;;;;;;;17.57;11.97;;;11.80;99.90;;;;;;5032855;28;20604;-70
2022/11/29 04:45:08;;;;;;;15.67;12.10;;;11.80;99.90;;;;;;5033443;28;20408;-73
2022/11/29 04:47:49;;;;;;;18.00;11.67;;;11.80;99.90;;;;;;5033992;28;20397;-70
2022/11/29 04:50:38;;;;;;;22.67;11.40;;;11.80;99.90;;;;;;5045524;28;20529;-69
2022/11/29 04:53:24;;;;;;;16.67;12.40;;;11.70;99.90;;;;;;5054965;28;20395;-70
2022/11/29 04:56:06;;;;;;;15.63;12.77;;;11.70;99.90;;;;;;5053810;28;20408;-69
2022/11/29 04:59:03;;;;;;;15.27;11.33;;;11.80;99.90;;;;;;5053783;28;20403;-71
2022/11/29 05:01:59;;;;;;;18.40;11.30;;;11.70;99.90;;;;;;5034006;28;20555;-74
2022/11/29 05:04:57;;;;;;;16.33;10.80;;;11.70;99.90;;;;;;5034588;28;20462;-69
2022/11/29 05:07:38;;;;;;;15.67;10.53;;;11.70;99.90;;;;;;5033196;28;20417;-70
2022/11/29 05:10:38;;;;;;;14.43;10.83;;;11.70;99.90;;;;;;5043298;28;20520;-72
2022/11/29 05:13:18;;;;;;;17.03;11.80;;;11.70;99.90;;;;;;5054232;28;20458;-72
2022/11/29 05:15:49;;;;;;;13.33;10.60;;;11.70;99.90;;;;;;5053205;28;20400;-74
2022/11/29 05:18:19;;;;;;;15.40;12.07;;;11.70;99.90;;;;;;5033168;28;20768;-72
2022/11/29 05:21:08;;;;;;;19.80;12.63;;;11.70;99.90;;;;;;5048839;28;20498;-72
2022/11/29 05:23:58;;;;;;;15.63;11.03;;;11.70;99.90;;;;;;5053365;28;20903;-75
2022/11/29 05:26:42;;;;;;;16.50;12.13;;;11.70;99.90;;;;;;5052731;28;20451;-71
2022/11/29 05:29:28;;;;;;;18.20;11.87;;;11.70;99.90;;;;;;5053053;28;20426;-72
2022/11/29 05:32:18;;;;;;;16.00;11.87;;;11.70;99.90;;;;;;5052148;28;20467;-72
2022/11/29 05:35:02;;;;;;;12.20;10.20;;;11.70;99.90;;;;;;5052553;28;20449;-72
2022/11/29 05:37:55;;;;;;;15.07;10.00;;;11.70;99.90;;;;;;5053718;28;20427;-71
2022/11/29 05:40:40;;;;;;;16.07;11.00;;;11.70;99.90;;;;;;5053722;28;20405;-71
2022/11/29 05:43:20;;;;;;;13.70;9.47;;;11.70;99.90;;;;;;5051579;28;20435;-71
2022/11/29 05:46:01;;;;;;;14.23;9.73;;;11.70;99.90;;;;;;5032940;28;20459;-72
2022/11/29 05:49:04;;;;;;;13.20;9.17;;;11.60;99.90;;;;;;5033713;28;20397;-72
2022/11/29 05:51:43;;;;;;;11.00;9.80;;;11.60;99.90;;;;;;5022188;28;20506;-72
2022/11/29 05:54:25;;;;;;;16.17;10.13;;;11.60;99.90;;;;;;5033530;28;20475;-72
2022/11/29 05:56:56;;;;;;;14.10;9.90;;;11.70;99.90;;;;;;5045459;28;20437;-72
2022/11/29 05:59:26;;;;;;;15.00;9.83;;;11.60;99.90;;;;;;5052352;28;20555;-72
2022/11/29 06:01:52;;;;;;;14.00;9.30;;;11.60;99.90;;;;;;5039558;28;20724;-71
2022/11/29 06:04:27;;;;;;;12.47;10.93;;;11.70;99.90;;;;;;5041127;28;20455;-72
2022/11/29 06:07:02;;;;;;;13.03;9.20;;;11.70;99.90;;;;;;5049140;28;20436;-73
2022/11/29 06:09:33;;;;;;;20.23;10.77;;;11.70;99.90;;;;;;5043786;28;20453;-72
2022/11/29 06:12:07;;;;;;;15.63;11.57;;;11.70;99.90;;;;;;5046481;28;20444;-71
2022/11/29 06:15:00;;;;;;;15.20;10.70;;;11.70;99.90;;;;;;5042856;28;20479;-77
2022/11/29 06:17:47;;;;;;;12.67;10.13;;;11.70;99.90;;;;;;5047521;28;20456;-70
2022/11/29 06:20:35;;;;;;;18.13;11.43;;;11.70;99.90;;;;;;5053100;28;20772;-69
2022/11/29 06:23:15;;;;;;;18.80;10.93;;;11.70;99.90;;;;;;5052244;28;20924;-69
2022/11/29 06:26:06;;;;;;;15.80;10.57;;;11.70;99.90;;;;;;5052216;28;20473;-70
2022/11/29 06:29:03;;;;;;;12.87;10.00;;;11.70;99.90;;;;;;5046115;28;20435;-71
2022/11/29 06:31:43;;;;;;;14.17;11.20;;;11.70;99.90;;;;;;5033009;28;20448;-69
2022/11/29 06:34:09;;;;;;;16.93;10.43;;;11.60;99.90;;;;;;5041899;28;20444;-70
2022/11/29 06:37:02;;;;;;;17.00;11.63;;;11.60;99.90;;;;;;5035043;28;20435;-70
2022/11/29 06:39:29;;;;;;;21.73;12.50;;;11.50;99.90;;;;;;5036163;28;20649;-69
2022/11/29 06:41:54;;;;;;;15.13;12.80;;;11.50;99.90;;;;;;5049472;28;20471;-69
2022/11/29 06:44:20;;;;;;;18.50;12.87;;;11.50;99.90;;;;;;5051783;28;20482;-69
2022/11/29 06:47:07;;;;;;;20.50;12.10;;;11.50;99.90;;;;;;5049587;28;20823;-69
2022/11/29 06:49:41;;;;;;;22.63;14.00;;;11.60;99.90;;;;;;5043140;28;20435;-69
2022/11/29 06:52:28;;;;;;;23.07;12.50;;;11.60;99.90;;;;;;5050035;28;20443;-70
2022/11/29 06:55:00;;;;;;;22.50;13.20;;;11.60;99.90;;;;;;5052155;28;20442;-69
2022/11/29 06:58:01;;;;;;;21.20;13.60;;;11.60;99.90;;;;;;5048304;28;20431;-69
2022/11/29 07:00:47;;;;;;;20.13;14.53;;;11.60;99.90;;;;;;5034685;28;20463;-69
2022/11/29 07:03:46;;;;;;;25.07;17.00;;;11.60;99.90;;;;;;5048766;28;20984;-69
2022/11/29 07:06:24;;;;;;;27.67;15.97;;;11.60;99.90;;;;;;5047494;28;20426;-69
2022/11/29 07:08:55;;;;;;;27.93;13.83;;;11.70;99.90;;;;;;5068134;28;20509;-69
2022/11/29 07:11:21;;;;;;;25.00;15.00;;;11.70;99.90;;;;;;5071184;28;20459;-69
2022/11/29 07:13:47;;;;;;;24.50;13.30;;;11.70;99.90;;;;;;5052910;28;20416;-69
2022/11/29 07:16:35;;;;;;;24.03;13.70;;;11.70;99.90;;;;;;5054539;28;20547;-69
2022/11/29 07:19:14;;;;;;;21.10;14.37;;;11.70;99.90;;;;;;5032512;28;20411;-71
2022/11/29 07:21:58;;;;;;;26.83;14.30;;;11.60;99.90;;;;;;5047941;28;20463;-69
2022/11/29 07:24:33;;;;;;;22.73;14.13;;;11.70;99.90;;;;;;5052365;28;20400;-69
2022/11/29 07:27:19;;;;;;;26.43;15.77;;;11.60;99.90;;;;;;5051307;28;20967;-69
2022/11/29 07:29:58;;;;;;;27.70;14.90;;;11.60;99.90;;;;;;5051725;28;20474;-69
2022/11/29 07:32:48;;;;;;;27.07;14.60;;;11.60;99.90;;;;;;5051498;28;20406;-70
2022/11/29 07:35:23;;;;;;;22.70;15.40;;;11.70;99.90;;;;;;5051523;28;20434;-69
2022/11/29 07:38:08;;;;;;;26.77;16.17;;;11.60;99.90;;;;;;5051721;28;20473;-69
2022/11/29 07:40:52;;;;;;;24.77;14.93;;;11.60;99.90;;;;;;5052253;28;20399;-69
2022/11/29 07:43:32;;;;;;;27.80;14.63;;;11.50;99.90;;;;;;5052286;28;20416;-69
2022/11/29 07:45:59;;;;;;;24.03;14.37;;;11.50;99.90;;;;;;5051334;28;20431;-69
2022/11/29 07:48:25;;;;;;;28.00;14.97;;;11.50;99.90;;;;;;5051852;28;20776;-69
2022/11/29 07:50:52;;;;;;;25.70;12.23;;;11.50;99.90;;;;;;5050473;28;20442;-69
2022/11/29 07:53:20;;;;;;;24.60;13.90;;;11.40;99.90;;;;;;5052193;28;20500;-69
2022/11/29 07:55:47;;;;;;;23.17;14.90;;;11.40;99.90;;;;;;5059631;28;20514;-69
2022/11/29 07:58:14;;;;;;;27.20;14.53;;;11.50;99.90;;;;;;5059677;28;20462;-69
2022/11/29 08:00:41;;;;;;;22.57;14.83;;;11.40;99.90;;;;;;5051402;28;20510;-70
2022/11/29 08:03:08;;;;;;;24.43;14.20;;;11.50;99.90;;;;;;5049927;28;20472;-69
2022/11/29 08:05:35;;;;;;;23.00;13.83;;;11.40;99.90;;;;;;5051921;28;20416;-69
2022/11/29 08:08:01;;;;;;;22.50;13.60;;;11.40;99.90;;;;;;5051603;28;20933;-68
2022/11/29 08:10:26;;;;;;;24.97;14.40;;;11.40;99.90;;;;;;5052047;28;20412;-69
2022/11/29 08:12:53;;;;;;;21.23;14.93;;;11.40;99.90;;;;;;5051440;28;20895;-69
2022/11/29 08:15:20;;;;;;;21.00;14.33;;;11.40;99.90;;;;;;5049801;28;20201;-69
2022/11/29 08:17:49;;;;;;;20.10;13.17;;;11.40;99.90;;;;;;5050230;28;20457;-69
2022/11/29 08:20:16;;;;;;;24.80;12.47;;;11.40;99.90;;;;;;5053466;28;20773;-69
2022/11/29 08:22:42;;;;;;;24.33;12.70;;;11.40;99.90;;;;;;5061809;28;20463;-70
2022/11/29 08:25:09;;;;;;;22.87;12.33;;;11.40;99.90;;;;;;5049498;28;20485;-69
2022/11/29 08:27:37;;;;;;;24.67;13.67;;;11.40;99.90;;;;;;5044517;28;20824;-69
2022/11/29 08:30:07;;;;;;;22.57;13.53;;;11.50;99.90;;;;;;5034621;28;20421;-69
2022/11/29 08:32:33;;;;;;;22.90;13.80;;;11.50;99.90;;;;;;5035336;28;20420;-69
2022/11/29 08:34:59;;;;;;;20.47;14.97;;;11.50;99.90;;;;;;5046754;28;20437;-69
2022/11/29 08:37:25;;;;;;;24.53;14.57;;;11.50;99.90;;;;;;5047992;28;20421;-69
2022/11/29 08:39:51;;;;;;;29.93;14.37;;;11.50;99.90;;;;;;5052205;28;20872;-69
2022/11/29 08:42:16;;;;;;;22.67;12.23;;;11.50;99.90;;;;;;5042993;28;20286;-69
2022/11/29 08:44:42;;;;;;;22.60;14.50;;;11.50;99.90;;;;;;5052331;28;20220;-69
2022/11/29 08:50:02;;;;;;;20.50;12.30;;;11.50;99.90;;;;;;5051218;28;20182;-69
2022/11/29 08:55:15;;;;;;;28.40;14.43;;;11.50;99.90;;;;;;5041128;28;20422;-69
2022/11/29 08:57:42;;;;;;;24.10;14.77;;;11.50;99.90;;;;;;5054675;28;20422;-71
2022/11/29 09:00:08;;;;;;;23.07;13.60;;;11.50;99.90;;;;;;5050993;28;21009;-69
2022/11/29 09:02:35;;;;;;;29.33;15.83;;;11.50;99.90;;;;;;5054177;28;20490;-69
2022/11/29 09:05:01;;;;;;;23.63;13.97;;;11.50;99.90;;;;;;5054162;28;20797;-69
2022/11/29 09:07:27;;;;;;;31.40;14.87;;;11.50;99.90;;;;;;5053322;28;20901;-69
2022/11/29 09:09:53;;;;;;;23.40;13.77;;;11.40;99.90;;;;;;5052688;28;20450;-69
2022/11/29 09:12:18;;;;;;;26.77;14.13;;;11.50;99.90;;;;;;5053446;28;20182;-69
2022/11/29 09:14:44;;;;;;;26.47;14.20;;;11.50;99.90;;;;;;5049523;28;20213;-69
2022/11/29 09:17:10;;;;;;;21.73;13.03;;;11.50;99.90;;;;;;5054593;28;20234;-69
2022/11/29 09:19:35;;;;;;;23.20;12.80;;;11.50;99.90;;;;;;5051143;28;20547;-69
2022/11/29 09:22:02;;;;;;;20.50;11.57;;;11.50;99.90;;;;;;5048756;28;20271;-70
2022/11/29 09:24:28;;;;;;;24.77;13.07;;;11.60;99.90;;;;;;5053606;28;20193;-69
2022/11/29 09:26:53;;;;;;;19.33;12.30;;;11.60;99.90;;;;;;5052606;28;20434;-69
2022/11/29 09:29:19;;;;;;;23.27;12.63;;;11.60;99.90;;;;;;5049806;28;20272;-69
2022/11/29 09:31:45;;;;;;;26.93;13.27;;;11.60;99.90;;;;;;5040182;28;20317;-71
2022/11/29 09:34:15;;;;;;;21.93;12.47;;;11.70;99.90;;;;;;5033367;28;20552;-70
2022/11/29 09:36:42;;;;;;;19.87;13.10;;;11.70;99.90;;;;;;5033981;28;20174;-70
2022/11/29 09:39:11;;;;;;;21.40;13.00;;;11.70;99.90;;;;;;5033265;28;20854;-69
2022/11/29 09:41:39;;;;;;;20.73;12.83;;;11.70;99.90;;;;;;5032685;28;20557;-69
2022/11/29 09:44:18;;;;;;;30.07;12.27;;;11.70;99.90;;;;;;5033714;28;20529;-69
2022/11/29 09:47:22;;;;;;;23.10;10.80;;;11.70;99.90;;;;;;5033770;28;20489;-69
2022/11/29 09:49:54;;;;;;;21.13;13.03;;;11.70;99.90;;;;;;5038149;28;20430;-69
2022/11/29 09:52:41;;;;;;;22.73;11.30;;;11.70;99.90;;;;;;5053200;28;20474;-69
2022/11/29 09:55:32;;;;;;;24.50;11.30;;;11.70;99.90;;;;;;5053198;28;20430;-69
2022/11/29 09:57:59;;;;;;;22.97;12.77;;;11.70;99.90;;;;;;5052935;28;20864;-69
2022/11/29 10:00:27;;;;;;;26.20;12.77;;;11.70;99.90;;;;;;5053233;28;20877;-69
2022/11/29 10:02:58;;;;;;;24.23;12.23;;;11.60;99.90;;;;;;5053010;28;20513;-69
2022/11/29 10:05:30;;;;;;;25.03;12.10;;;11.70;99.90;;;;;;5053649;28;20450;-69
2022/11/29 10:08:19;;;;;;;24.40;11.90;;;11.70;99.90;;;;;;5052892;28;20907;-69
2022/11/29 10:10:48;;;;;;;23.07;12.80;;;11.70;99.90;;;;;;5053619;28;20413;-69
2022/11/29 10:13:26;;;;;;;28.70;12.43;;;11.70;99.90;;;;;;5052258;28;20480;-69
2022/11/29 10:16:12;;;;;;;20.00;11.63;;;11.70;99.90;;;;;;5052916;28;20453;-69
2022/11/29 10:18:49;;;;;;;21.40;11.70;;;11.70;99.90;;;;;;5052244;28;20452;-70
2022/11/29 10:21:24;;;;;;;19.33;10.70;;;11.70;99.90;;;;;;5041875;28;20460;-69
2022/11/29 10:23:53;;;;;;;20.30;12.33;;;11.70;99.90;;;;;;5052490;28;20436;-70
2022/11/29 10:26:21;;;;;;;23.63;12.40;;;11.80;99.90;;;;;;5052989;28;20828;-69
2022/11/29 10:28:48;;;;;;;20.40;11.50;;;11.80;99.90;;;;;;5052360;28;20408;-71
2022/11/29 10:31:22;;;;;;;22.37;11.60;;;11.80;99.90;;;;;;5053046;28;20511;-69
2022/11/29 10:33:48;;;;;;;24.17;11.53;;;11.80;99.90;;;;;;5052649;28;20489;-72
2022/11/29 10:36:35;;;;;;;18.67;10.90;;;11.80;99.90;;;;;;5052812;28;20841;-69
2022/11/29 10:39:05;;;;;;;22.87;13.53;;;11.90;99.90;;;;;;5052396;28;20448;-69
2022/11/29 10:41:32;;;;;;;23.23;12.30;;;11.90;99.90;;;;;;5051884;28;20439;-69
2022/11/29 10:43:59;;;;;;;18.77;10.57;;;11.90;99.90;;;;;;5049221;28;20442;-69
2022/11/29 10:46:33;;;;;;;22.03;11.93;;;11.90;99.90;;;;;;5052898;28;20408;-69
2022/11/29 10:49:05;;;;;;;27.50;12.70;;;11.90;99.90;;;;;;5052261;28;20482;-69
2022/11/29 10:51:32;;;;;;;20.67;11.90;;;12.00;99.90;;;;;;5052801;28;20416;-69
2022/11/29 10:54:30;;;;;;;23.37;12.73;;;12.00;99.90;;;;;;5050952;28;20415;-69
2022/11/29 10:56:59;;;;;;;24.77;12.97;;;11.90;99.90;;;;;;5029054;28;20757;-69
2022/11/29 10:59:28;;;;;;;21.50;13.87;;;11.90;99.90;;;;;;5052295;28;20540;-69
2022/11/29 11:01:54;;;;;;;23.63;12.70;;;12.00;99.90;;;;;;5051875;28;20458;-69
2022/11/29 11:04:31;;;;;;;24.80;12.87;;;12.00;99.90;;;;;;5052553;28;20477;-69
2022/11/29 11:07:02;;;;;;;17.10;12.00;;;12.00;99.90;;;;;;5052149;28;20422;-69
2022/11/29 11:09:41;;;;;;;25.07;14.30;;;12.00;99.90;;;;;;5051531;28;20437;-69
2022/11/29 11:12:12;;;;;;;24.30;13.87;;;12.00;99.90;;;;;;5052062;28;20463;-69
2022/11/29 11:14:39;;;;;;;26.03;13.60;;;12.00;99.90;;;;;;5050989;28;20417;-69
2022/11/29 11:17:24;;;;;;;24.83;13.60;;;12.10;99.90;;;;;;5051896;28;20821;-69
2022/11/29 11:20:07;;;;;;;26.40;13.60;;;12.00;99.90;;;;;;5052088;28;20404;-71
2022/11/29 11:22:35;;;;;;;27.07;13.17;;;12.00;99.90;;;;;;5052043;28;20451;-69
2022/11/29 11:25:23;;;;;;;21.13;13.57;;;12.00;99.90;;;;;;5051846;28;20412;-69
2022/11/29 11:27:48;;;;;;;23.07;13.13;;;12.00;99.90;;;;;;5052570;28;20399;-69
2022/11/29 11:30:22;;;;;;;21.33;12.70;;;12.00;99.90;;;;;;5051489;28;20428;-69
2022/11/29 11:33:16;;;;;;;28.57;13.17;;;12.10;99.90;;;;;;5051097;28;20424;-69
2022/11/29 11:35:41;;;;;;;27.10;13.90;;;12.10;99.90;;;;;;5052181;28;20881;-69
2022/11/29 11:38:15;;;;;;;25.00;13.57;;;12.10;99.90;;;;;;5051739;28;20404;-69
2022/11/29 11:40:42;;;;;;;25.63;13.90;;;12.10;99.90;;;;;;5052230;28;20217;-69
2022/11/29 11:43:19;;;;;;;30.30;15.00;;;12.10;99.90;;;;;;5051656;28;20420;-69
2022/11/29 11:45:52;;;;;;;28.73;13.70;;;12.10;99.90;;;;;;5051913;28;20438;-69
2022/11/29 11:48:18;;;;;;;26.13;14.63;;;12.10;99.90;;;;;;5052194;28;20389;-69
2022/11/29 11:50:57;;;;;;;33.20;15.80;;;12.10;99.90;;;;;;5052137;28;20510;-69
2022/11/29 11:53:37;;;;;;;33.67;16.30;;;12.10;99.90;;;;;;5052414;28;20420;-69
2022/11/29 11:56:12;;;;;;;33.33;16.53;;;12.10;99.90;;;;;;5054074;28;20900;-69
2022/11/29 11:58:56;;;;;;;31.67;16.53;;;12.10;99.90;;;;;;5054961;28;20831;-69
2022/11/29 12:01:29;;;;;;;29.10;17.40;;;12.10;99.90;;;;;;5055997;28;20452;-69
2022/11/29 12:03:55;;;;;;;33.10;15.33;;;12.10;99.90;;;;;;5055320;28;20863;-69
2022/11/29 12:06:50;;;;;;;30.07;18.53;;;12.10;99.90;;;;;;5055970;28;20400;-69
2022/11/29 12:09:34;;;;;;;29.37;15.33;;;12.10;99.90;;;;;;5055237;28;20495;-69
2022/11/29 12:12:18;;;;;;;31.30;15.77;;;12.10;99.90;;;;;;5055209;28;20396;-69
2022/11/29 12:14:53;;;;;;;28.30;16.67;;;12.10;99.90;;;;;;5055940;28;20396;-69
2022/11/29 12:17:30;;;;;;;27.60;15.50;;;12.10;99.90;;;;;;5054700;28;20396;-69
2022/11/29 12:20:01;;;;;;;34.23;15.83;;;12.10;99.90;;;;;;5053763;28;20424;-70
2022/11/29 12:22:34;;;;;;;28.80;15.37;;;12.10;99.90;;;;;;5055213;28;20505;-69
2022/11/29 12:25:05;;;;;;;30.77;15.80;;;12.00;99.90;;;;;;5054980;28;20411;-70
2022/11/29 12:27:31;;;;;;;27.57;16.07;;;12.00;99.90;;;;;;5054364;28;20825;-69
2022/11/29 12:29:57;;;;;;;23.77;14.03;;;12.00;99.90;;;;;;5054750;28;20420;-70
2022/11/29 12:32:40;;;;;;;33.57;16.13;;;12.10;99.90;;;;;;5055419;28;20182;-69
2022/11/29 12:35:30;;;;;;;27.67;16.70;;;12.10;99.90;;;;;;5054805;28;20258;-69
2022/11/29 12:38:29;;;;;;;27.33;16.27;;;12.10;99.90;;;;;;5054822;28;20426;-69
2022/11/29 12:41:17;;;;;;;22.97;15.90;;;12.10;99.90;;;;;;5054678;28;20409;-70
2022/11/29 12:44:06;;;;;;;26.90;15.40;;;12.10;99.90;;;;;;5055314;28;20429;-69
2022/11/29 12:46:33;;;;;;;25.33;16.10;;;12.10;99.90;;;;;;5053946;28;20832;-69
2022/11/29 12:49:05;;;;;;;27.53;15.90;;;12.30;99.90;;;;;;5054292;28;20900;-70
2022/11/29 12:51:49;;;;;;;32.50;17.47;;;12.10;99.90;;;;;;5055081;28;20392;-69
2022/11/29 12:54:27;;;;;;;26.20;17.10;;;12.10;99.90;;;;;;5054308;28;20408;-69
2022/11/29 12:57:05;;;;;;;26.07;15.03;;;12.10;99.90;;;;;;5053861;28;20757;-69
2022/11/29 12:59:40;;;;;;;34.80;16.77;;;12.20;99.90;;;;;;5054486;28;20982;-69
2022/11/29 13:02:29;;;;;;;27.10;15.70;;;12.20;99.90;;;;;;5054202;28;20457;-69
2022/11/29 13:05:11;;;;;;;30.30;16.97;;;12.20;99.90;;;;;;5047818;28;20459;-69
2022/11/29 13:08:09;;;;;;;34.47;16.67;;;12.10;99.90;;;;;;5052799;28;20503;-69
2022/11/29 13:11:00;;;;;;;32.80;16.43;;;12.10;99.90;;;;;;5054617;28;20455;-69
2022/11/29 13:13:47;;;;;;;28.80;15.50;;;12.10;99.90;;;;;;5053245;28;20437;-69
2022/11/29 13:16:34;;;;;;;32.00;17.50;;;12.10;99.90;;;;;;5053782;28;20393;-69
2022/11/29 13:19:02;;;;;;;33.97;17.57;;;12.10;99.90;;;;;;5053907;28;20392;-69
2022/11/29 13:21:36;;;;;;;35.23;18.43;;;12.20;99.90;;;;;;5054572;28;20454;-69
2022/11/29 13:24:10;;;;;;;32.70;17.77;;;12.10;99.90;;;;;;5053884;28;20416;-69